sensor_id;sensor_type;location;lat;lon;timestamp;temperature;humidity
67141;DHT22;54058;52.010;5.546;2024-03-25T00:00:39;6.40;99.90
67141;DHT22;54058;52.010;5.546;2024-03-25T00:03:05;6.40;99.90
67141;DHT22;54058;52.010;5.546;2024-03-25T00:05:30;6.30;99.90
67141;DHT22;54058;52.010;5.546;2024-03-25T00:07:57;6.30;99.90
67141;DHT22;54058;52.010;5.546;2024-03-25T00:10:24;6.30;99.90
67141;DHT22;54058;52.010;5.546;2024-03-25T00:12:49;6.30;99.90
67141;DHT22;54058;52.010;5.546;2024-03-25T00:15:20;6.30;99.90
67141;DHT22;54058;52.010;5.546;2024-03-25T00:17:46;6.30;99.90
67141;DHT22;54058;52.010;5.546;2024-03-25T00:20:13;6.30;99.90
67141;DHT22;54058;52.010;5.546;2024-03-25T00:22:39;6.30;99.90
67141;DHT22;54058;52.010;5.546;2024-03-25T00:25:05;6.30;99.90
67141;DHT22;54058;52.010;5.546;2024-03-25T00:27:30;6.30;99.90
67141;DHT22;54058;52.010;5.546;2024-03-25T00:29:56;6.30;99.90
67141;DHT22;54058;52.010;5.546;2024-03-25T00:32:22;6.30;99.90
67141;DHT22;54058;52.010;5.546;2024-03-25T00:34:47;6.20;99.90
67141;DHT22;54058;52.010;5.546;2024-03-25T00:37:13;6.30;99.90
67141;DHT22;54058;52.010;5.546;2024-03-25T00:39:39;6.30;99.90
67141;DHT22;54058;52.010;5.546;2024-03-25T00:42:05;6.30;99.90
67141;DHT22;54058;52.010;5.546;2024-03-25T00:44:31;6.30;99.90
67141;DHT22;54058;52.010;5.546;2024-03-25T00:46:57;6.40;99.90
67141;DHT22;54058;52.010;5.546;2024-03-25T00:49:22;6.40;99.90
67141;DHT22;54058;52.010;5.546;2024-03-25T00:51:48;6.40;99.90
67141;DHT22;54058;52.010;5.546;2024-03-25T00:54:14;6.30;99.90
67141;DHT22;54058;52.010;5.546;2024-03-25T00:56:40;6.40;99.90
67141;DHT22;54058;52.010;5.546;2024-03-25T00:59:05;6.30;99.90
67141;DHT22;54058;52.010;5.546;2024-03-25T01:01:32;6.40;99.90
67141;DHT22;54058;52.010;5.546;2024-03-25T01:03:58;6.40;99.90
67141;DHT22;54058;52.010;5.546;2024-03-25T01:06:24;6.40;99.90
67141;DHT22;54058;52.010;5.546;2024-03-25T01:08:50;6.40;99.90
67141;DHT22;54058;52.010;5.546;2024-03-25T01:11:17;6.40;99.90
67141;DHT22;54058;52.010;5.546;2024-03-25T01:13:43;6.40;99.90
67141;DHT22;54058;52.010;5.546;2024-03-25T01:16:09;6.40;99.90
67141;DHT22;54058;52.010;5.546;2024-03-25T01:18:35;6.30;99.90
67141;DHT22;54058;52.010;5.546;2024-03-25T01:21:01;6.30;99.90
67141;DHT22;54058;52.010;5.546;2024-03-25T01:23:26;6.30;99.90
67141;DHT22;54058;52.010;5.546;2024-03-25T01:25:52;6.30;99.90
67141;DHT22;54058;52.010;5.546;2024-03-25T01:28:18;6.20;99.90
67141;DHT22;54058;52.010;5.546;2024-03-25T01:30:43;6.20;99.90
67141;DHT22;54058;52.010;5.546;2024-03-25T01:33:09;6.20;99.90
67141;DHT22;54058;52.010;5.546;2024-03-25T01:35:35;6.20;99.90
67141;DHT22;54058;52.010;5.546;2024-03-25T01:38:01;6.20;99.90
67141;DHT22;54058;52.010;5.546;2024-03-25T01:40:26;6.20;99.90
67141;DHT22;54058;52.010;5.546;2024-03-25T01:42:56;6.20;99.90
67141;DHT22;54058;52.010;5.546;2024-03-25T01:45:22;6.20;99.90
67141;DHT22;54058;52.010;5.546;2024-03-25T01:47:48;6.20;99.90
67141;DHT22;54058;52.010;5.546;2024-03-25T01:50:14;6.20;99.90
67141;DHT22;54058;52.010;5.546;2024-03-25T01:52:40;6.10;99.90
67141;DHT22;54058;52.010;5.546;2024-03-25T01:55:07;6.10;99.90
67141;DHT22;54058;52.010;5.546;2024-03-25T01:57:35;6.10;99.90
67141;DHT22;54058;52.010;5.546;2024-03-25T02:00:03;6.10;99.90
67141;DHT22;54058;52.010;5.546;2024-03-25T02:02:30;6.00;99.90
67141;DHT22;54058;52.010;5.546;2024-03-25T02:04:56;6.10;99.90
67141;DHT22;54058;52.010;5.546;2024-03-25T02:07:23;6.00;99.90
67141;DHT22;54058;52.010;5.546;2024-03-25T02:09:50;6.00;99.90
67141;DHT22;54058;52.010;5.546;2024-03-25T02:12:17;6.00;99.90
67141;DHT22;54058;52.010;5.546;2024-03-25T02:14:42;6.00;99.90
67141;DHT22;54058;52.010;5.546;2024-03-25T02:17:09;6.00;99.90
67141;DHT22;54058;52.010;5.546;2024-03-25T02:19:37;5.90;99.90
67141;DHT22;54058;52.010;5.546;2024-03-25T02:22:03;5.90;99.90
67141;DHT22;54058;52.010;5.546;2024-03-25T02:24:30;5.90;99.90
67141;DHT22;54058;52.010;5.546;2024-03-25T02:26:56;5.90;99.90
67141;DHT22;54058;52.010;5.546;2024-03-25T02:29:22;5.90;99.90
67141;DHT22;54058;52.010;5.546;2024-03-25T02:31:47;5.80;99.90
67141;DHT22;54058;52.010;5.546;2024-03-25T02:34:13;5.80;99.90
67141;DHT22;54058;52.010;5.546;2024-03-25T02:36:39;5.80;99.90
67141;DHT22;54058;52.010;5.546;2024-03-25T02:39:06;5.80;99.90
67141;DHT22;54058;52.010;5.546;2024-03-25T02:41:31;5.80;99.90
67141;DHT22;54058;52.010;5.546;2024-03-25T02:43:57;5.80;99.90
67141;DHT22;54058;52.010;5.546;2024-03-25T02:46:23;5.80;99.90
67141;DHT22;54058;52.010;5.546;2024-03-25T02:48:48;5.80;99.90
67141;DHT22;54058;52.010;5.546;2024-03-25T02:51:14;5.80;99.90
67141;DHT22;54058;52.010;5.546;2024-03-25T02:53:40;5.80;99.90
67141;DHT22;54058;52.010;5.546;2024-03-25T02:56:05;5.80;99.90
67141;DHT22;54058;52.010;5.546;2024-03-25T02:58:31;5.80;99.90
67141;DHT22;54058;52.010;5.546;2024-03-25T03:00:56;5.80;99.90
67141;DHT22;54058;52.010;5.546;2024-03-25T03:03:22;5.80;99.90
67141;DHT22;54058;52.010;5.546;2024-03-25T03:05:48;5.80;99.90
67141;DHT22;54058;52.010;5.546;2024-03-25T03:08:13;5.80;99.90
67141;DHT22;54058;52.010;5.546;2024-03-25T03:10:39;5.80;99.90
67141;DHT22;54058;52.010;5.546;2024-03-25T03:13:04;5.80;99.90
67141;DHT22;54058;52.010;5.546;2024-03-25T03:15:30;5.80;99.90
67141;DHT22;54058;52.010;5.546;2024-03-25T03:17:56;5.80;99.90
67141;DHT22;54058;52.010;5.546;2024-03-25T03:20:21;5.80;99.90
67141;DHT22;54058;52.010;5.546;2024-03-25T03:22:47;5.80;99.90
67141;DHT22;54058;52.010;5.546;2024-03-25T03:25:12;5.80;99.90
67141;DHT22;54058;52.010;5.546;2024-03-25T03:27:38;5.90;99.90
67141;DHT22;54058;52.010;5.546;2024-03-25T03:30:04;6.00;99.90
67141;DHT22;54058;52.010;5.546;2024-03-25T03:32:30;6.00;99.90
67141;DHT22;54058;52.010;5.546;2024-03-25T03:34:56;6.00;99.90
67141;DHT22;54058;52.010;5.546;2024-03-25T03:37:21;6.00;99.90
67141;DHT22;54058;52.010;5.546;2024-03-25T03:39:47;6.00;99.90
67141;DHT22;54058;52.010;5.546;2024-03-25T03:42:13;6.00;99.90
67141;DHT22;54058;52.010;5.546;2024-03-25T03:44:38;6.00;99.90
67141;DHT22;54058;52.010;5.546;2024-03-25T03:47:04;6.10;99.90
67141;DHT22;54058;52.010;5.546;2024-03-25T03:49:30;6.10;99.90
67141;DHT22;54058;52.010;5.546;2024-03-25T03:51:55;6.00;99.90
67141;DHT22;54058;52.010;5.546;2024-03-25T03:54:22;6.10;99.90
67141;DHT22;54058;52.010;5.546;2024-03-25T03:56:48;6.00;99.90
67141;DHT22;54058;52.010;5.546;2024-03-25T03:59:13;6.00;99.90
67141;DHT22;54058;52.010;5.546;2024-03-25T04:01:39;6.00;99.90
67141;DHT22;54058;52.010;5.546;2024-03-25T04:04:04;6.00;99.90
67141;DHT22;54058;52.010;5.546;2024-03-25T04:06:30;6.00;99.90
67141;DHT22;54058;52.010;5.546;2024-03-25T04:08:56;6.00;99.90
67141;DHT22;54058;52.010;5.546;2024-03-25T04:11:21;6.00;99.90
67141;DHT22;54058;52.010;5.546;2024-03-25T04:13:47;6.00;99.90
67141;DHT22;54058;52.010;5.546;2024-03-25T04:16:13;6.00;99.90
67141;DHT22;54058;52.010;5.546;2024-03-25T04:18:38;6.00;99.90
67141;DHT22;54058;52.010;5.546;2024-03-25T04:21:11;6.00;99.90
67141;DHT22;54058;52.010;5.546;2024-03-25T04:23:37;6.00;99.90
67141;DHT22;54058;52.010;5.546;2024-03-25T04:26:03;6.00;99.90
67141;DHT22;54058;52.010;5.546;2024-03-25T04:28:31;6.00;99.90
67141;DHT22;54058;52.010;5.546;2024-03-25T04:30:57;6.00;99.90
67141;DHT22;54058;52.010;5.546;2024-03-25T04:33:22;5.90;99.90
67141;DHT22;54058;52.010;5.546;2024-03-25T04:35:48;5.90;99.90
67141;DHT22;54058;52.010;5.546;2024-03-25T04:38:16;5.90;99.90
67141;DHT22;54058;52.010;5.546;2024-03-25T04:40:42;5.90;99.90
67141;DHT22;54058;52.010;5.546;2024-03-25T04:43:09;5.80;99.90
67141;DHT22;54058;52.010;5.546;2024-03-25T04:45:35;5.80;99.90
67141;DHT22;54058;52.010;5.546;2024-03-25T04:48:00;5.80;99.90
67141;DHT22;54058;52.010;5.546;2024-03-25T04:50:26;5.80;99.90
67141;DHT22;54058;52.010;5.546;2024-03-25T04:52:52;5.80;99.90
67141;DHT22;54058;52.010;5.546;2024-03-25T04:55:17;5.90;99.90
67141;DHT22;54058;52.010;5.546;2024-03-25T04:57:43;5.80;99.90
67141;DHT22;54058;52.010;5.546;2024-03-25T05:00:09;5.80;99.90
67141;DHT22;54058;52.010;5.546;2024-03-25T05:02:38;5.80;99.90
67141;DHT22;54058;52.010;5.546;2024-03-25T05:05:04;5.80;99.90
67141;DHT22;54058;52.010;5.546;2024-03-25T05:07:30;5.70;99.90
67141;DHT22;54058;52.010;5.546;2024-03-25T05:09:56;5.80;99.90
67141;DHT22;54058;52.010;5.546;2024-03-25T05:12:22;5.80;99.90
67141;DHT22;54058;52.010;5.546;2024-03-25T05:14:47;5.80;99.90
67141;DHT22;54058;52.010;5.546;2024-03-25T05:17:13;5.80;99.90
67141;DHT22;54058;52.010;5.546;2024-03-25T05:19:38;5.80;99.90
67141;DHT22;54058;52.010;5.546;2024-03-25T05:22:04;5.80;99.90
67141;DHT22;54058;52.010;5.546;2024-03-25T05:24:29;5.80;99.90
67141;DHT22;54058;52.010;5.546;2024-03-25T05:26:55;5.80;99.90
67141;DHT22;54058;52.010;5.546;2024-03-25T05:29:21;5.80;99.90
67141;DHT22;54058;52.010;5.546;2024-03-25T05:31:58;5.70;99.90
67141;DHT22;54058;52.010;5.546;2024-03-25T05:34:25;5.70;99.90
67141;DHT22;54058;52.010;5.546;2024-03-25T05:36:50;5.70;99.90
67141;DHT22;54058;52.010;5.546;2024-03-25T05:39:17;5.70;99.90
67141;DHT22;54058;52.010;5.546;2024-03-25T05:41:42;5.80;99.90
67141;DHT22;54058;52.010;5.546;2024-03-25T05:44:08;5.80;99.90
67141;DHT22;54058;52.010;5.546;2024-03-25T05:46:34;5.80;99.90
67141;DHT22;54058;52.010;5.546;2024-03-25T05:49:03;5.90;99.90
67141;DHT22;54058;52.010;5.546;2024-03-25T05:51:30;5.90;99.90
67141;DHT22;54058;52.010;5.546;2024-03-25T05:53:55;5.80;99.90
67141;DHT22;54058;52.010;5.546;2024-03-25T05:56:21;5.90;99.90
67141;DHT22;54058;52.010;5.546;2024-03-25T05:58:47;6.00;99.90
67141;DHT22;54058;52.010;5.546;2024-03-25T06:01:13;6.00;99.90
67141;DHT22;54058;52.010;5.546;2024-03-25T06:03:39;6.00;99.90
67141;DHT22;54058;52.010;5.546;2024-03-25T06:06:04;6.00;99.90
67141;DHT22;54058;52.010;5.546;2024-03-25T06:08:30;6.00;99.90
67141;DHT22;54058;52.010;5.546;2024-03-25T06:11:01;6.00;99.90
67141;DHT22;54058;52.010;5.546;2024-03-25T06:13:27;6.10;99.90
67141;DHT22;54058;52.010;5.546;2024-03-25T06:15:52;6.10;99.90
67141;DHT22;54058;52.010;5.546;2024-03-25T06:18:18;6.20;99.90
67141;DHT22;54058;52.010;5.546;2024-03-25T06:20:44;6.20;99.90
67141;DHT22;54058;52.010;5.546;2024-03-25T06:23:10;6.30;99.90
67141;DHT22;54058;52.010;5.546;2024-03-25T06:25:35;6.40;99.90
67141;DHT22;54058;52.010;5.546;2024-03-25T06:28:03;6.40;99.90
67141;DHT22;54058;52.010;5.546;2024-03-25T06:30:28;6.50;99.90
67141;DHT22;54058;52.010;5.546;2024-03-25T06:33:12;6.60;99.90
67141;DHT22;54058;52.010;5.546;2024-03-25T06:35:56;6.70;99.90
67141;DHT22;54058;52.010;5.546;2024-03-25T06:38:22;6.70;99.90
67141;DHT22;54058;52.010;5.546;2024-03-25T06:40:48;6.80;99.90
67141;DHT22;54058;52.010;5.546;2024-03-25T06:43:13;6.80;99.90
67141;DHT22;54058;52.010;5.546;2024-03-25T06:45:42;6.80;99.90
67141;DHT22;54058;52.010;5.546;2024-03-25T06:48:07;6.80;99.90
67141;DHT22;54058;52.010;5.546;2024-03-25T06:50:33;6.90;99.90
67141;DHT22;54058;52.010;5.546;2024-03-25T06:52:59;6.90;99.90
67141;DHT22;54058;52.010;5.546;2024-03-25T06:55:24;7.00;99.90
67141;DHT22;54058;52.010;5.546;2024-03-25T06:57:53;7.00;99.90
67141;DHT22;54058;52.010;5.546;2024-03-25T07:00:19;7.10;99.90
67141;DHT22;54058;52.010;5.546;2024-03-25T07:02:45;7.20;99.90
67141;DHT22;54058;52.010;5.546;2024-03-25T07:05:11;7.20;99.90
67141;DHT22;54058;52.010;5.546;2024-03-25T07:07:37;7.40;99.90
67141;DHT22;54058;52.010;5.546;2024-03-25T07:10:02;7.40;99.90
67141;DHT22;54058;52.010;5.546;2024-03-25T07:12:28;7.60;99.90
67141;DHT22;54058;52.010;5.546;2024-03-25T07:14:54;7.80;99.90
67141;DHT22;54058;52.010;5.546;2024-03-25T07:17:19;7.90;99.90
67141;DHT22;54058;52.010;5.546;2024-03-25T07:19:47;7.90;99.90
67141;DHT22;54058;52.010;5.546;2024-03-25T07:22:12;8.00;99.90
67141;DHT22;54058;52.010;5.546;2024-03-25T07:24:38;8.40;99.90
67141;DHT22;54058;52.010;5.546;2024-03-25T07:27:04;9.20;99.90
67141;DHT22;54058;52.010;5.546;2024-03-25T07:29:30;9.90;99.90
67141;DHT22;54058;52.010;5.546;2024-03-25T07:31:55;10.20;99.90
67141;DHT22;54058;52.010;5.546;2024-03-25T07:34:21;10.30;99.90
67141;DHT22;54058;52.010;5.546;2024-03-25T07:36:46;10.30;99.90
67141;DHT22;54058;52.010;5.546;2024-03-25T07:39:13;10.50;99.90
67141;DHT22;54058;52.010;5.546;2024-03-25T07:41:39;10.50;99.90
67141;DHT22;54058;52.010;5.546;2024-03-25T07:44:05;10.60;99.90
67141;DHT22;54058;52.010;5.546;2024-03-25T07:46:31;11.00;99.90
67141;DHT22;54058;52.010;5.546;2024-03-25T07:48:57;11.70;99.90
67141;DHT22;54058;52.010;5.546;2024-03-25T07:51:23;12.10;99.90
67141;DHT22;54058;52.010;5.546;2024-03-25T07:53:48;12.60;99.90
67141;DHT22;54058;52.010;5.546;2024-03-25T07:56:17;12.80;99.90
67141;DHT22;54058;52.010;5.546;2024-03-25T07:58:43;13.00;99.90
67141;DHT22;54058;52.010;5.546;2024-03-25T08:01:08;13.10;99.90
67141;DHT22;54058;52.010;5.546;2024-03-25T08:03:34;13.10;99.90
67141;DHT22;54058;52.010;5.546;2024-03-25T08:06:00;12.90;99.90
67141;DHT22;54058;52.010;5.546;2024-03-25T08:08:26;12.70;99.90
67141;DHT22;54058;52.010;5.546;2024-03-25T08:10:51;12.60;99.90
67141;DHT22;54058;52.010;5.546;2024-03-25T08:13:21;12.40;99.90
67141;DHT22;54058;52.010;5.546;2024-03-25T08:15:47;12.20;99.90
67141;DHT22;54058;52.010;5.546;2024-03-25T08:18:12;12.20;99.90
67141;DHT22;54058;52.010;5.546;2024-03-25T08:20:38;12.10;99.90
67141;DHT22;54058;52.010;5.546;2024-03-25T08:23:04;12.00;99.90
67141;DHT22;54058;52.010;5.546;2024-03-25T08:25:30;11.80;99.90
67141;DHT22;54058;52.010;5.546;2024-03-25T08:27:57;11.80;99.90
67141;DHT22;54058;52.010;5.546;2024-03-25T08:30:22;11.80;99.90
67141;DHT22;54058;52.010;5.546;2024-03-25T08:32:48;11.80;99.90
67141;DHT22;54058;52.010;5.546;2024-03-25T08:35:14;11.80;99.90
67141;DHT22;54058;52.010;5.546;2024-03-25T08:37:39;11.80;99.90
67141;DHT22;54058;52.010;5.546;2024-03-25T08:40:06;11.90;99.90
67141;DHT22;54058;52.010;5.546;2024-03-25T08:42:31;11.90;99.90
67141;DHT22;54058;52.010;5.546;2024-03-25T08:44:57;11.90;99.90
67141;DHT22;54058;52.010;5.546;2024-03-25T08:47:24;11.90;99.90
67141;DHT22;54058;52.010;5.546;2024-03-25T08:49:50;12.00;99.90
67141;DHT22;54058;52.010;5.546;2024-03-25T08:52:16;12.10;99.90
67141;DHT22;54058;52.010;5.546;2024-03-25T08:54:44;12.20;99.90
67141;DHT22;54058;52.010;5.546;2024-03-25T08:57:09;12.20;99.90
67141;DHT22;54058;52.010;5.546;2024-03-25T08:59:35;12.20;99.90
67141;DHT22;54058;52.010;5.546;2024-03-25T09:02:01;12.20;99.90
67141;DHT22;54058;52.010;5.546;2024-03-25T09:04:27;12.30;99.90
67141;DHT22;54058;52.010;5.546;2024-03-25T09:06:52;12.30;99.90
67141;DHT22;54058;52.010;5.546;2024-03-25T09:09:18;12.30;99.90
67141;DHT22;54058;52.010;5.546;2024-03-25T09:12:02;12.30;99.90
67141;DHT22;54058;52.010;5.546;2024-03-25T09:14:28;12.20;99.90
67141;DHT22;54058;52.010;5.546;2024-03-25T09:16:54;12.20;99.90
67141;DHT22;54058;52.010;5.546;2024-03-25T09:19:20;12.10;99.90
67141;DHT22;54058;52.010;5.546;2024-03-25T09:21:45;12.20;99.90
67141;DHT22;54058;52.010;5.546;2024-03-25T09:24:11;12.00;99.90
67141;DHT22;54058;52.010;5.546;2024-03-25T09:26:36;11.90;99.90
67141;DHT22;54058;52.010;5.546;2024-03-25T09:29:02;11.70;99.90
67141;DHT22;54058;52.010;5.546;2024-03-25T09:31:28;11.70;99.90
67141;DHT22;54058;52.010;5.546;2024-03-25T09:33:54;11.70;99.90
67141;DHT22;54058;52.010;5.546;2024-03-25T09:36:19;11.60;99.90
67141;DHT22;54058;52.010;5.546;2024-03-25T09:38:45;11.60;99.90
67141;DHT22;54058;52.010;5.546;2024-03-25T09:41:11;11.70;99.90
67141;DHT22;54058;52.010;5.546;2024-03-25T09:43:57;11.90;99.90
67141;DHT22;54058;52.010;5.546;2024-03-25T09:46:23;12.10;99.90
67141;DHT22;54058;52.010;5.546;2024-03-25T09:48:52;12.20;99.90
67141;DHT22;54058;52.010;5.546;2024-03-25T09:51:19;12.20;99.90
67141;DHT22;54058;52.010;5.546;2024-03-25T09:53:45;12.20;99.90
67141;DHT22;54058;52.010;5.546;2024-03-25T09:56:12;12.20;99.90
67141;DHT22;54058;52.010;5.546;2024-03-25T09:58:39;12.20;99.90
67141;DHT22;54058;52.010;5.546;2024-03-25T10:01:05;12.10;99.90
67141;DHT22;54058;52.010;5.546;2024-03-25T10:03:30;12.00;99.90
67141;DHT22;54058;52.010;5.546;2024-03-25T10:05:56;12.00;99.90
67141;DHT22;54058;52.010;5.546;2024-03-25T10:08:22;12.10;99.90
67141;DHT22;54058;52.010;5.546;2024-03-25T10:10:48;12.40;99.90
67141;DHT22;54058;52.010;5.546;2024-03-25T10:13:15;12.50;99.90
67141;DHT22;54058;52.010;5.546;2024-03-25T10:15:47;12.50;99.90
67141;DHT22;54058;52.010;5.546;2024-03-25T10:18:13;12.50;99.40
67141;DHT22;54058;52.010;5.546;2024-03-25T10:20:48;12.50;99.50
67141;DHT22;54058;52.010;5.546;2024-03-25T10:23:14;12.60;99.30
67141;DHT22;54058;52.010;5.546;2024-03-25T10:25:40;12.60;98.70
67141;DHT22;54058;52.010;5.546;2024-03-25T10:28:06;12.60;98.60
67141;DHT22;54058;52.010;5.546;2024-03-25T10:30:32;12.50;97.40
67141;DHT22;54058;52.010;5.546;2024-03-25T10:32:59;12.50;98.20
67141;DHT22;54058;52.010;5.546;2024-03-25T10:35:29;12.70;98.50
67141;DHT22;54058;52.010;5.546;2024-03-25T10:38:03;12.90;94.20
67141;DHT22;54058;52.010;5.546;2024-03-25T10:40:39;13.10;97.50
67141;DHT22;54058;52.010;5.546;2024-03-25T10:43:10;13.30;97.50
67141;DHT22;54058;52.010;5.546;2024-03-25T10:45:45;13.50;96.70
67141;DHT22;54058;52.010;5.546;2024-03-25T10:48:29;13.70;95.80
67141;DHT22;54058;52.010;5.546;2024-03-25T10:50:56;13.80;94.80
67141;DHT22;54058;52.010;5.546;2024-03-25T10:53:24;13.80;95.80
67141;DHT22;54058;52.010;5.546;2024-03-25T10:55:55;13.70;95.60
67141;DHT22;54058;52.010;5.546;2024-03-25T10:58:23;13.60;95.40
67141;DHT22;54058;52.010;5.546;2024-03-25T11:00:51;13.60;94.20
67141;DHT22;54058;52.010;5.546;2024-03-25T11:03:17;13.50;94.60
67141;DHT22;54058;52.010;5.546;2024-03-25T11:05:43;13.40;94.90
67141;DHT22;54058;52.010;5.546;2024-03-25T11:08:17;13.40;95.10
67141;DHT22;54058;52.010;5.546;2024-03-25T11:10:46;13.50;95.00
67141;DHT22;54058;52.010;5.546;2024-03-25T11:13:13;13.60;94.80
67141;DHT22;54058;52.010;5.546;2024-03-25T11:15:43;13.70;95.00
67141;DHT22;54058;52.010;5.546;2024-03-25T11:18:17;13.80;95.00
67141;DHT22;54058;52.010;5.546;2024-03-25T11:20:44;13.80;94.40
67141;DHT22;54058;52.010;5.546;2024-03-25T11:23:10;13.80;94.50
67141;DHT22;54058;52.010;5.546;2024-03-25T11:25:37;13.80;94.50
67141;DHT22;54058;52.010;5.546;2024-03-25T11:28:03;13.70;94.40
67141;DHT22;54058;52.010;5.546;2024-03-25T11:30:29;13.70;94.50
67141;DHT22;54058;52.010;5.546;2024-03-25T11:32:57;13.70;94.20
67141;DHT22;54058;52.010;5.546;2024-03-25T11:35:24;13.80;94.30
67141;DHT22;54058;52.010;5.546;2024-03-25T11:37:50;13.80;93.80
67141;DHT22;54058;52.010;5.546;2024-03-25T11:40:18;13.80;94.00
67141;DHT22;54058;52.010;5.546;2024-03-25T11:42:44;13.80;94.00
67141;DHT22;54058;52.010;5.546;2024-03-25T11:45:15;13.70;93.70
67141;DHT22;54058;52.010;5.546;2024-03-25T11:47:45;13.80;93.20
67141;DHT22;54058;52.010;5.546;2024-03-25T11:50:15;14.00;92.90
67141;DHT22;54058;52.010;5.546;2024-03-25T11:52:42;14.00;92.30
67141;DHT22;54058;52.010;5.546;2024-03-25T11:55:09;14.00;91.60
67141;DHT22;54058;52.010;5.546;2024-03-25T11:57:36;13.90;91.70
67141;DHT22;54058;52.010;5.546;2024-03-25T12:00:02;14.00;91.60
67141;DHT22;54058;52.010;5.546;2024-03-25T12:02:31;14.10;91.70
67141;DHT22;54058;52.010;5.546;2024-03-25T12:04:57;14.10;90.50
67141;DHT22;54058;52.010;5.546;2024-03-25T12:07:23;13.90;90.70
67141;DHT22;54058;52.010;5.546;2024-03-25T12:09:48;13.90;91.00
67141;DHT22;54058;52.010;5.546;2024-03-25T12:12:33;13.90;89.30
67141;DHT22;54058;52.010;5.546;2024-03-25T12:15:00;13.90;86.80
67141;DHT22;54058;52.010;5.546;2024-03-25T12:17:28;14.00;88.00
67141;DHT22;54058;52.010;5.546;2024-03-25T12:20:04;14.00;87.50
67141;DHT22;54058;52.010;5.546;2024-03-25T12:22:34;14.00;85.10
67141;DHT22;54058;52.010;5.546;2024-03-25T12:25:02;13.90;86.50
67141;DHT22;54058;52.010;5.546;2024-03-25T12:27:28;13.80;87.60
67141;DHT22;54058;52.010;5.546;2024-03-25T12:30:05;13.70;87.20
67141;DHT22;54058;52.010;5.546;2024-03-25T12:34:59;13.90;86.50
67141;DHT22;54058;52.010;5.546;2024-03-25T12:37:28;14.00;87.00
67141;DHT22;54058;52.010;5.546;2024-03-25T12:39:54;14.10;87.50
67141;DHT22;54058;52.010;5.546;2024-03-25T12:42:19;14.00;85.30
67141;DHT22;54058;52.010;5.546;2024-03-25T12:44:45;13.90;87.00
67141;DHT22;54058;52.010;5.546;2024-03-25T12:47:11;14.00;87.20
67141;DHT22;54058;52.010;5.546;2024-03-25T12:49:37;14.00;85.90
67141;DHT22;54058;52.010;5.546;2024-03-25T12:52:05;14.10;86.60
67141;DHT22;54058;52.010;5.546;2024-03-25T12:54:32;14.00;82.80
67141;DHT22;54058;52.010;5.546;2024-03-25T12:56:58;13.80;84.70
67141;DHT22;54058;52.010;5.546;2024-03-25T12:59:23;13.50;82.90
67141;DHT22;54058;52.010;5.546;2024-03-25T13:01:49;13.30;83.80
67141;DHT22;54058;52.010;5.546;2024-03-25T13:04:17;13.30;84.30
67141;DHT22;54058;52.010;5.546;2024-03-25T13:06:43;13.20;84.30
67141;DHT22;54058;52.010;5.546;2024-03-25T13:09:09;13.20;83.10
67141;DHT22;54058;52.010;5.546;2024-03-25T13:11:36;13.30;83.80
67141;DHT22;54058;52.010;5.546;2024-03-25T13:14:03;13.40;83.50
67141;DHT22;54058;52.010;5.546;2024-03-25T13:16:32;13.50;84.30
67141;DHT22;54058;52.010;5.546;2024-03-25T13:18:58;13.50;84.10
67141;DHT22;54058;52.010;5.546;2024-03-25T13:21:24;13.60;83.30
67141;DHT22;54058;52.010;5.546;2024-03-25T13:23:51;13.50;82.70
67141;DHT22;54058;52.010;5.546;2024-03-25T13:26:17;13.60;83.70
67141;DHT22;54058;52.010;5.546;2024-03-25T13:28:43;13.70;83.70
67141;DHT22;54058;52.010;5.546;2024-03-25T13:31:08;13.80;83.30
67141;DHT22;54058;52.010;5.546;2024-03-25T13:33:34;13.90;83.00
67141;DHT22;54058;52.010;5.546;2024-03-25T13:36:00;13.90;82.60
67141;DHT22;54058;52.010;5.546;2024-03-25T13:38:25;13.90;81.50
67141;DHT22;54058;52.010;5.546;2024-03-25T13:40:52;13.70;80.00
67141;DHT22;54058;52.010;5.546;2024-03-25T13:43:18;13.60;79.90
67141;DHT22;54058;52.010;5.546;2024-03-25T13:45:48;13.50;79.90
67141;DHT22;54058;52.010;5.546;2024-03-25T13:48:15;13.50;80.30
67141;DHT22;54058;52.010;5.546;2024-03-25T13:50:41;13.60;81.20
67141;DHT22;54058;52.010;5.546;2024-03-25T13:53:08;13.70;81.00
67141;DHT22;54058;52.010;5.546;2024-03-25T13:55:34;13.70;80.70
67141;DHT22;54058;52.010;5.546;2024-03-25T13:57:59;13.80;81.10
67141;DHT22;54058;52.010;5.546;2024-03-25T14:00:25;13.80;81.60
67141;DHT22;54058;52.010;5.546;2024-03-25T14:02:56;13.90;81.40
67141;DHT22;54058;52.010;5.546;2024-03-25T14:05:22;14.00;81.40
67141;DHT22;54058;52.010;5.546;2024-03-25T14:07:49;14.10;81.20
67141;DHT22;54058;52.010;5.546;2024-03-25T14:10:15;14.00;80.70
67141;DHT22;54058;52.010;5.546;2024-03-25T14:12:42;14.00;80.60
67141;DHT22;54058;52.010;5.546;2024-03-25T14:15:08;13.90;80.90
67141;DHT22;54058;52.010;5.546;2024-03-25T14:17:34;13.80;80.70
67141;DHT22;54058;52.010;5.546;2024-03-25T14:19:59;13.80;79.90
67141;DHT22;54058;52.010;5.546;2024-03-25T14:22:25;13.80;80.50
67141;DHT22;54058;52.010;5.546;2024-03-25T14:24:52;13.70;78.80
67141;DHT22;54058;52.010;5.546;2024-03-25T14:27:25;13.60;77.60
67141;DHT22;54058;52.010;5.546;2024-03-25T14:29:52;13.50;77.70
67141;DHT22;54058;52.010;5.546;2024-03-25T14:32:22;13.50;79.00
67141;DHT22;54058;52.010;5.546;2024-03-25T14:34:48;13.50;76.00
67141;DHT22;54058;52.010;5.546;2024-03-25T14:37:14;13.40;77.70
67141;DHT22;54058;52.010;5.546;2024-03-25T14:39:40;13.50;77.20
67141;DHT22;54058;52.010;5.546;2024-03-25T14:42:08;13.30;76.60
67141;DHT22;54058;52.010;5.546;2024-03-25T14:44:33;13.30;76.70
67141;DHT22;54058;52.010;5.546;2024-03-25T14:46:59;13.20;64.20
67141;DHT22;54058;52.010;5.546;2024-03-25T14:49:25;13.20;75.90
67141;DHT22;54058;52.010;5.546;2024-03-25T14:51:50;13.20;76.00
67141;DHT22;54058;52.010;5.546;2024-03-25T14:54:18;13.20;76.40
67141;DHT22;54058;52.010;5.546;2024-03-25T14:56:44;13.20;75.40
67141;DHT22;54058;52.010;5.546;2024-03-25T14:59:10;13.10;76.00
67141;DHT22;54058;52.010;5.546;2024-03-25T15:01:35;13.10;75.80
67141;DHT22;54058;52.010;5.546;2024-03-25T15:04:03;13.00;75.40
67141;DHT22;54058;52.010;5.546;2024-03-25T15:06:29;12.90;75.20
67141;DHT22;54058;52.010;5.546;2024-03-25T15:08:56;12.90;75.50
67141;DHT22;54058;52.010;5.546;2024-03-25T15:11:22;12.80;74.90
67141;DHT22;54058;52.010;5.546;2024-03-25T15:13:47;12.60;68.00
67141;DHT22;54058;52.010;5.546;2024-03-25T15:16:13;12.60;75.00
67141;DHT22;54058;52.010;5.546;2024-03-25T15:18:39;12.60;75.10
67141;DHT22;54058;52.010;5.546;2024-03-25T15:21:05;12.50;75.70
67141;DHT22;54058;52.010;5.546;2024-03-25T15:23:31;12.50;75.30
67141;DHT22;54058;52.010;5.546;2024-03-25T15:25:58;12.40;75.70
67141;DHT22;54058;52.010;5.546;2024-03-25T15:28:25;12.30;74.90
67141;DHT22;54058;52.010;5.546;2024-03-25T15:30:52;12.30;74.60
67141;DHT22;54058;52.010;5.546;2024-03-25T15:33:18;12.20;75.40
67141;DHT22;54058;52.010;5.546;2024-03-25T15:35:44;12.10;74.80